Time;durP1;ratioP1;P1;durP2;ratioP2;P2;SDS_P1;SDS_P2;PMS_P1;PMS_P2;Temp;Humidity;BMP_temperature;BMP_pressure;BME280_temperature;BME280_humidity;BME280_pressure;Samples;Min_cycle;Max_cycle;Signal;HPM_P1;HPM_P2
2023/01/25 00:02:20;;;;;;;86.77;64.20;;;;;;;0.42;100.00;103633.41;5269170;28;20036;-76
2023/01/25 00:04:51;;;;;;;89.13;62.30;;;;;;;0.51;100.00;103605.28;5261664;28;20031;-79
2023/01/25 00:07:23;;;;;;;85.53;64.53;;;;;;;0.40;100.00;103615.28;5262267;28;20029;-76
2023/01/25 00:09:54;;;;;;;91.30;67.20;;;;;;;0.29;100.00;103625.31;5257464;28;20041;-80
2023/01/25 00:12:25;;;;;;;99.13;69.90;;;;;;;0.63;100.00;103625.38;5262351;28;20086;-78
2023/01/25 00:14:56;;;;;;;95.80;69.30;;;;;;;0.75;100.00;103611.06;5257422;28;20025;-73
2023/01/25 00:17:28;;;;;;;96.27;71.57;;;;;;;0.51;100.00;103607.00;5255827;28;20028;-78
2023/01/25 00:19:59;;;;;;;89.70;66.67;;;;;;;0.42;100.00;103610.22;5268958;28;20528;-77
2023/01/25 00:22:30;;;;;;;84.13;63.23;;;;;;;0.42;100.00;103613.63;5257841;28;20024;-80
2023/01/25 00:25:02;;;;;;;90.80;66.10;;;;;;;0.71;100.00;103620.44;5265037;28;20028;-77
2023/01/25 00:27:33;;;;;;;90.57;63.50;;;;;;;0.59;100.00;103605.50;5264205;28;20055;-73
2023/01/25 00:30:05;;;;;;;85.23;63.90;;;;;;;0.55;100.00;103617.44;5258039;28;20170;-76
2023/01/25 00:33:25;;;;;;;84.63;62.10;;;;;;;0.54;100.00;103612.25;5265929;28;20116;-79
2023/01/25 00:35:56;;;;;;;87.80;64.17;;;;;;;0.48;100.00;103611.25;5242062;28;20090;-76
2023/01/25 00:38:33;;;;;;;89.20;64.23;;;;;;;0.52;100.00;103621.63;5260476;28;20044;-78
2023/01/25 00:41:04;;;;;;;92.93;67.60;;;;;;;0.45;100.00;103613.75;5258190;28;20040;-78
2023/01/25 00:43:35;;;;;;;95.90;69.70;;;;;;;0.76;100.00;103616.28;5257169;28;20056;-80
2023/01/25 00:46:08;;;;;;;95.63;68.33;;;;;;;0.55;100.00;103598.50;5256154;28;20027;-79
2023/01/25 00:48:39;;;;;;;95.37;68.77;;;;;;;0.72;100.00;103611.84;5256025;28;20045;-78
2023/01/25 00:51:10;;;;;;;94.07;66.80;;;;;;;0.82;100.00;103602.66;5257998;28;20031;-75
2023/01/25 00:53:42;;;;;;;94.83;68.20;;;;;;;0.88;100.00;103602.81;5256213;28;20035;-78
2023/01/25 00:56:13;;;;;;;97.00;70.13;;;;;;;0.67;100.00;103604.00;5254482;28;20406;-76
2023/01/25 00:58:45;;;;;;;93.37;66.83;;;;;;;0.67;100.00;103603.13;5259969;28;20029;-76
2023/01/25 01:01:16;;;;;;;95.97;67.83;;;;;;;0.53;100.00;103605.31;5258053;28;20025;-80
2023/01/25 01:03:47;;;;;;;96.27;68.93;;;;;;;0.60;100.00;103602.09;5262880;28;20502;-78
2023/01/25 01:06:18;;;;;;;97.07;69.70;;;;;;;0.46;100.00;103600.00;5257247;28;20033;-78
2023/01/25 01:08:50;;;;;;;99.90;68.23;;;;;;;0.58;100.00;103572.78;5250574;28;20086;-77
2023/01/25 01:11:21;;;;;;;97.63;68.60;;;;;;;0.71;100.00;103576.59;5257414;28;21019;-76
2023/01/25 01:13:56;;;;;;;97.97;69.57;;;;;;;0.90;100.00;103597.69;5255122;28;20411;-79
2023/01/25 01:16:28;;;;;;;93.78;67.47;;;;;;;0.96;100.00;103590.97;5255604;28;20059;-77
2023/01/25 01:18:59;;;;;;;99.23;71.53;;;;;;;0.65;100.00;103594.47;5273034;28;20020;-75
2023/01/25 01:21:31;;;;;;;100.50;69.43;;;;;;;0.60;100.00;103600.38;5272537;28;20036;-74
2023/01/25 01:24:03;;;;;;;95.17;69.43;;;;;;;0.68;100.00;103600.56;5272022;28;20544;-74
2023/01/25 01:26:34;;;;;;;97.47;70.97;;;;;;;0.60;100.00;103596.94;5275591;28;20035;-79
2023/01/25 01:29:05;;;;;;;94.63;68.00;;;;;;;0.54;100.00;103586.47;5270504;28;20082;-79
2023/01/25 01:31:37;;;;;;;95.80;68.53;;;;;;;0.57;100.00;103591.69;5272690;28;20066;-74
2023/01/25 01:34:11;;;;;;;99.17;68.87;;;;;;;0.65;100.00;103584.13;5272587;28;20029;-73
2023/01/25 01:36:42;;;;;;;96.40;70.57;;;;;;;0.77;100.00;103586.19;5268099;28;20032;-77
2023/01/25 01:39:14;;;;;;;94.17;68.53;;;;;;;0.80;100.00;103587.13;5274819;28;20062;-76
2023/01/25 01:41:45;;;;;;;97.63;71.37;;;;;;;0.95;100.00;103584.06;5274491;28;20045;-77
2023/01/25 01:44:21;;;;;;;98.70;72.00;;;;;;;0.78;100.00;103595.66;5272669;28;20024;-79
2023/01/25 01:46:56;;;;;;;99.90;70.10;;;;;;;0.65;100.00;103599.63;5277173;28;20025;-78
2023/01/25 01:49:30;;;;;;;;;;;;;;;0.93;100.00;103601.22;5276879;28;20025;-73
2023/01/25 01:52:11;;;;;;;106.23;70.23;;;;;;;0.47;100.00;103588.00;5273966;28;20002;-79
2023/01/25 01:55:00;;;;;;;99.50;70.60;;;;;;;0.43;100.00;103588.72;5275059;28;20040;-75
2023/01/25 01:57:38;;;;;;;102.17;72.50;;;;;;;0.56;100.00;103595.97;5261824;28;20037;-77
2023/01/25 02:00:19;;;;;;;100.27;70.60;;;;;;;0.33;100.00;103592.78;5262212;28;20036;-76
2023/01/25 02:02:51;;;;;;;98.63;70.70;;;;;;;0.55;100.00;103595.94;5274403;28;20060;-79
2023/01/25 02:05:25;;;;;;;104.43;72.30;;;;;;;0.35;100.00;103591.97;5271980;28;20507;-78
2023/01/25 02:07:57;;;;;;;100.68;72.90;;;;;;;0.28;100.00;103595.19;5272136;28;20518;-79
2023/01/25 02:10:30;;;;;;;98.83;69.17;;;;;;;0.26;100.00;103585.69;5273397;28;20045;-81
2023/01/25 02:13:01;;;;;;;95.57;68.57;;;;;;;0.46;100.00;103594.84;5278092;28;20090;-80
2023/01/25 02:15:39;;;;;;;102.93;71.97;;;;;;;0.52;100.00;103588.13;5274267;28;20036;-74
2023/01/25 02:18:11;;;;;;;104.43;74.17;;;;;;;0.55;100.00;103583.03;5277530;28;20078;-77
2023/01/25 02:20:49;;;;;;;98.93;70.90;;;;;;;0.68;100.00;103589.41;5275408;28;20039;-80
2023/01/25 02:23:29;;;;;;;102.70;71.40;;;;;;;0.78;100.00;103591.41;5276566;28;20085;-74
2023/01/25 02:26:04;;;;;;;105.70;73.83;;;;;;;0.78;100.00;103590.50;5275561;28;20020;-76
2023/01/25 02:28:41;;;;;;;;;;;;;;;0.95;100.00;103585.78;5274886;28;20032;-76
2023/01/25 02:31:12;;;;;;;110.20;71.27;;;;;;;0.55;100.00;103580.47;5275176;28;19921;-75
2023/01/25 02:33:44;;;;;;;106.07;73.73;;;;;;;0.57;100.00;103577.09;5274040;28;20093;-74
2023/01/25 02:36:26;;;;;;;109.80;77.03;;;;;;;0.74;100.00;103568.91;5272149;28;20032;-78
2023/01/25 02:39:04;;;;;;;113.63;78.80;;;;;;;0.79;100.00;103561.28;5277261;28;20039;-78
2023/01/25 02:41:37;;;;;;;99.40;72.17;;;;;;;0.51;100.00;103565.75;5277272;28;20024;-79
2023/01/25 02:44:14;;;;;;;104.70;71.47;;;;;;;0.41;100.00;103568.06;5274697;28;20024;-75
2023/01/25 02:46:46;;;;;;;104.07;73.37;;;;;;;0.39;100.00;103550.78;5276392;28;20025;-80
2023/01/25 02:49:18;;;;;;;104.47;71.80;;;;;;;0.31;100.00;103550.59;5276799;28;20414;-77
2023/01/25 02:51:56;;;;;;;106.83;72.60;;;;;;;0.56;100.00;103559.00;5272765;28;20021;-74
2023/01/25 02:54:27;;;;;;;109.87;75.67;;;;;;;0.45;100.00;103554.44;5274778;28;20028;-80
2023/01/25 02:56:58;;;;;;;107.77;74.73;;;;;;;0.52;100.00;103562.31;5276985;28;20513;-72
2023/01/25 02:59:30;;;;;;;111.67;76.30;;;;;;;0.66;100.00;103561.00;5276421;28;20086;-75
2023/01/25 03:02:01;;;;;;;113.53;78.20;;;;;;;0.56;100.00;103559.00;5276645;28;20028;-79
2023/01/25 03:04:32;;;;;;;109.50;73.57;;;;;;;0.69;100.00;103558.50;5276388;28;20035;-74
2023/01/25 03:07:04;;;;;;;115.57;76.40;;;;;;;0.72;100.00;103545.66;5275811;28;20423;-77
2023/01/25 03:09:35;;;;;;;114.73;76.97;;;;;;;0.74;100.00;103552.56;5276416;28;20041;-79
2023/01/25 03:12:07;;;;;;;113.30;75.20;;;;;;;0.61;100.00;103541.94;5275067;28;20471;-76
2023/01/25 03:14:38;;;;;;;107.67;74.80;;;;;;;0.74;100.00;103552.56;5274505;28;20029;-77
2023/01/25 03:17:10;;;;;;;110.17;76.10;;;;;;;0.90;100.00;103553.81;5276472;28;20054;-80
2023/01/25 03:19:41;;;;;;;103.60;71.93;;;;;;;0.62;100.00;103535.06;5275425;28;20036;-79
2023/01/25 03:22:12;;;;;;;110.57;76.43;;;;;;;0.46;100.00;103548.44;5274033;28;20064;-79
2023/01/25 03:24:43;;;;;;;116.60;78.33;;;;;;;0.66;100.00;103542.94;5275272;28;20111;-76
2023/01/25 03:27:17;;;;;;;109.83;74.70;;;;;;;0.71;100.00;103538.78;5274673;28;20032;-76
2023/01/25 03:29:48;;;;;;;105.33;71.77;;;;;;;0.43;100.00;103535.47;5272692;28;20029;-77
2023/01/25 03:32:19;;;;;;;110.57;75.63;;;;;;;0.79;100.00;103530.31;5271567;28;20423;-80
2023/01/25 03:34:51;;;;;;;113.60;77.33;;;;;;;0.88;100.00;103521.94;5287417;28;20072;-78
2023/01/25 03:37:22;;;;;;;109.33;73.50;;;;;;;0.86;100.00;103510.69;5265496;28;20445;-75
2023/01/25 03:39:53;;;;;;;106.87;74.23;;;;;;;0.47;100.00;103514.06;5272395;28;20016;-76
2023/01/25 03:42:25;;;;;;;115.07;77.67;;;;;;;0.72;100.00;103512.13;5267863;28;20035;-79
2023/01/25 03:44:56;;;;;;;105.20;72.73;;;;;;;0.57;100.00;103525.50;5275509;28;20035;-79
2023/01/25 03:47:27;;;;;;;111.77;77.57;;;;;;;0.67;100.00;103516.28;5276360;28;20040;-74
2023/01/25 03:49:59;;;;;;;111.87;76.00;;;;;;;0.70;100.00;103515.47;5273105;28;20035;-76
2023/01/25 03:52:37;;;;;;;109.37;74.23;;;;;;;0.63;100.00;103524.78;5271934;28;20737;-75
2023/01/25 03:55:08;;;;;;;107.53;72.83;;;;;;;0.65;100.00;103512.78;5276218;28;20100;-76
2023/01/25 03:57:40;;;;;;;108.87;73.73;;;;;;;0.42;100.00;103515.66;5274264;28;20585;-75
2023/01/25 04:00:11;;;;;;;108.40;74.40;;;;;;;0.50;100.00;103527.88;5274393;28;20121;-75
2023/01/25 04:02:43;;;;;;;106.60;73.70;;;;;;;0.56;100.00;103522.91;5276158;28;20051;-79
2023/01/25 04:05:14;;;;;;;112.80;74.20;;;;;;;0.58;100.00;103518.63;5275326;28;20028;-79
2023/01/25 04:07:45;;;;;;;106.93;74.40;;;;;;;0.59;100.00;103513.50;5261499;28;20032;-79
2023/01/25 04:10:17;;;;;;;107.63;75.50;;;;;;;0.40;100.00;103519.88;5275067;28;20543;-77
2023/01/25 04:12:48;;;;;;;108.53;72.37;;;;;;;0.62;100.00;103517.88;5275634;28;20032;-77
2023/01/25 04:15:19;;;;;;;107.10;71.63;;;;;;;0.57;100.00;103491.09;5274589;28;20524;-81
2023/01/25 04:17:50;;;;;;;111.50;76.17;;;;;;;0.30;100.00;103500.72;5275251;28;20488;-80
2023/01/25 04:20:22;;;;;;;106.60;70.40;;;;;;;0.18;100.00;103516.75;5275415;28;20023;-80
2023/01/25 04:22:53;;;;;;;108.77;72.70;;;;;;;0.36;100.00;103512.94;5275019;28;20040;-75
2023/01/25 04:25:24;;;;;;;103.60;69.47;;;;;;;0.12;100.00;103511.44;5273360;28;20042;-73
2023/01/25 04:27:56;;;;;;;107.00;72.03;;;;;;;0.26;100.00;103498.94;5272588;28;20036;-80
2023/01/25 04:30:27;;;;;;;107.03;72.40;;;;;;;0.41;100.00;103502.72;5273258;28;20036;-80
2023/01/25 04:33:03;;;;;;;110.43;72.77;;;;;;;0.52;100.00;103510.75;5273897;28;20032;-74
2023/01/25 04:35:35;;;;;;;104.83;70.23;;;;;;;0.52;100.00;103495.28;5273196;28;20047;-80
2023/01/25 04:38:06;;;;;;;108.97;72.10;;;;;;;0.63;100.00;103503.28;5272899;28;20028;-78
2023/01/25 04:40:38;;;;;;;103.27;67.53;;;;;;;0.22;100.00;103505.69;5270812;28;20100;-80
2023/01/25 04:43:12;;;;;;;102.53;69.40;;;;;;;0.38;100.00;103495.78;5268631;28;20421;-77
2023/01/25 04:45:43;;;;;;;103.28;70.38;;;;;;;0.25;100.00;103502.31;5274229;28;20059;-75
2023/01/25 04:48:15;;;;;;;104.37;70.60;;;;;;;-0.07;100.00;103486.88;5273571;28;20029;-78
2023/01/25 04:50:46;;;;;;;107.93;72.23;;;;;;;0.26;100.00;103488.63;5290446;28;20028;-80
2023/01/25 04:53:17;;;;;;;111.97;73.90;;;;;;;0.35;100.00;103501.72;5271873;28;20567;-76
2023/01/25 04:55:49;;;;;;;106.53;69.43;;;;;;;0.54;100.00;103491.03;5273828;28;20025;-74
2023/01/25 04:58:20;;;;;;;105.57;70.87;;;;;;;0.58;100.00;103487.69;5273008;28;20036;-74
2023/01/25 05:00:52;;;;;;;105.47;71.63;;;;;;;0.66;100.00;103487.88;5271795;28;20037;-78
2023/01/25 05:03:24;;;;;;;104.47;69.30;;;;;;;0.60;100.00;103484.31;5272224;28;20060;-79
2023/01/25 05:05:55;;;;;;;108.53;71.67;;;;;;;0.57;100.00;103473.06;5274073;28;20059;-79
2023/01/25 05:08:26;;;;;;;106.47;71.77;;;;;;;0.63;100.00;103468.03;5274269;28;20032;-74
2023/01/25 05:10:58;;;;;;;103.07;70.50;;;;;;;0.69;100.00;103473.34;5275002;28;20044;-76
2023/01/25 05:13:29;;;;;;;105.03;72.20;;;;;;;0.63;100.00;103473.19;5271024;28;20071;-79
2023/01/25 05:16:00;;;;;;;99.47;68.53;;;;;;;0.67;100.00;103468.97;5272256;28;20024;-75
2023/01/25 05:18:31;;;;;;;108.70;72.23;;;;;;;0.39;100.00;103464.00;5267591;28;20207;-75
2023/01/25 05:21:03;;;;;;;104.57;70.77;;;;;;;0.62;100.00;103465.41;5273912;28;20021;-75
2023/01/25 05:23:34;;;;;;;101.27;69.17;;;;;;;0.65;100.00;103471.53;5274537;28;20032;-75
2023/01/25 05:28:57;;;;;;;103.57;69.47;;;;;;;0.07;100.00;103471.78;5273137;28;20044;-76
2023/01/25 05:31:28;;;;;;;106.30;69.57;;;;;;;0.04;100.00;103474.25;5273602;28;20032;-75
2023/01/25 05:33:59;;;;;;;102.67;71.07;;;;;;;-0.16;100.00;103466.88;5272741;28;20085;-74
2023/01/25 05:36:30;;;;;;;98.57;67.83;;;;;;;-0.18;100.00;103466.81;5272429;28;20034;-80
2023/01/25 05:39:05;;;;;;;100.70;69.57;;;;;;;-0.29;100.00;103463.06;5274608;28;20025;-84
2023/01/25 05:41:36;;;;;;;106.68;70.97;;;;;;;-0.28;100.00;103464.81;5275855;28;20087;-82
2023/01/25 05:44:08;;;;;;;94.70;65.37;;;;;;;-0.30;100.00;103457.06;5272932;28;20016;-74
2023/01/25 05:46:39;;;;;;;101.97;69.43;;;;;;;-0.45;100.00;103466.88;5273362;28;20032;-80
2023/01/25 05:49:10;;;;;;;97.50;66.97;;;;;;;-0.40;100.00;103457.63;5274590;28;20016;-86
2023/01/25 05:51:43;;;;;;;97.87;67.83;;;;;;;-0.02;100.00;103457.78;5274595;28;20052;-89
2023/01/25 05:54:16;;;;;;;95.90;66.53;;;;;;;0.11;100.00;103464.16;5274328;28;20031;-85
2023/01/25 05:56:48;;;;;;;95.83;66.10;;;;;;;0.28;100.00;103460.28;5290344;28;20702;-84
2023/01/25 05:59:20;;;;;;;94.33;66.30;;;;;;;-0.08;100.00;103454.19;5273821;28;20025;-86
2023/01/25 06:01:51;;;;;;;92.90;63.77;;;;;;;0.22;100.00;103454.16;5270248;28;20050;-76
2023/01/25 06:04:23;;;;;;;92.13;63.53;;;;;;;0.21;100.00;103449.81;5273861;28;20025;-85
2023/01/25 06:06:54;;;;;;;93.20;63.47;;;;;;;0.31;100.00;103450.94;5272708;28;20127;-78
2023/01/25 06:09:25;;;;;;;86.33;61.47;;;;;;;0.29;100.00;103457.75;5273030;28;20048;-79
2023/01/25 06:11:57;;;;;;;107.67;64.83;;;;;;;0.41;100.00;103464.94;5272844;28;20020;-74
2023/01/25 06:14:28;;;;;;;97.20;65.30;;;;;;;0.43;100.00;103465.84;5270467;28;20538;-78
2023/01/25 06:16:59;;;;;;;95.10;64.93;;;;;;;0.52;100.00;103469.47;5270962;28;20485;-80
2023/01/25 06:19:31;;;;;;;88.93;62.17;;;;;;;0.31;100.00;103457.78;5269875;28;20035;-78
2023/01/25 06:22:02;;;;;;;90.60;61.93;;;;;;;0.31;100.00;103457.78;5263851;28;20035;-73
2023/01/25 06:24:33;;;;;;;91.60;63.50;;;;;;;0.14;100.00;103458.19;5273432;28;20021;-78
2023/01/25 06:27:05;;;;;;;89.37;61.03;;;;;;;0.17;100.00;103460.88;5270786;28;20024;-80
2023/01/25 06:29:36;;;;;;;89.17;61.37;;;;;;;0.24;100.00;103460.19;5271337;28;20730;-81
2023/01/25 06:32:08;;;;;;;90.63;61.27;;;;;;;0.29;100.00;103454.28;5272695;28;20451;-76
2023/01/25 06:34:39;;;;;;;92.33;61.23;;;;;;;0.31;100.00;103455.22;5269853;28;20409;-77
2023/01/25 06:37:10;;;;;;;97.47;64.93;;;;;;;0.38;100.00;103454.53;5272235;28;20029;-81
2023/01/25 06:39:41;;;;;;;92.13;62.97;;;;;;;0.32;100.00;103457.81;5268442;28;20046;-79
2023/01/25 06:42:13;;;;;;;97.07;66.97;;;;;;;0.17;100.00;103463.47;5272474;28;20029;-79
2023/01/25 06:44:44;;;;;;;97.03;63.97;;;;;;;0.16;100.00;103460.84;5271104;28;20021;-75
2023/01/25 06:47:15;;;;;;;94.20;64.13;;;;;;;0.31;100.00;103455.22;5271655;28;20083;-75
2023/01/25 06:49:47;;;;;;;93.20;63.33;;;;;;;0.35;100.00;103457.00;5273613;28;20056;-82
2023/01/25 06:52:18;;;;;;;87.47;61.10;;;;;;;0.30;100.00;103448.28;5273321;28;20368;-79
2023/01/25 06:54:49;;;;;;;88.50;60.87;;;;;;;0.28;100.00;103437.09;5272127;28;20041;-84
2023/01/25 06:57:21;;;;;;;85.20;59.37;;;;;;;0.21;100.00;103465.28;5270699;28;20039;-79
2023/01/25 06:59:52;;;;;;;91.10;62.63;;;;;;;0.38;100.00;103446.81;5273518;28;20040;-71
2023/01/25 07:02:23;;;;;;;88.37;60.57;;;;;;;0.42;100.00;103452.91;5276458;28;20036;-80
2023/01/25 07:04:54;;;;;;;91.00;59.87;;;;;;;0.41;100.00;103456.31;5276173;28;20037;-82
2023/01/25 07:07:26;;;;;;;90.83;61.03;;;;;;;0.39;100.00;103442.50;5276134;28;20111;-84
2023/01/25 07:09:59;;;;;;;90.33;62.73;;;;;;;0.46;100.00;103450.44;5276209;28;20052;-82
2023/01/25 07:12:30;;;;;;;89.17;60.50;;;;;;;0.36;100.00;103448.47;5276355;28;20473;-77
2023/01/25 07:15:02;;;;;;;89.97;61.00;;;;;;;0.29;100.00;103429.41;5275611;28;20040;-77
2023/01/25 07:17:33;;;;;;;88.60;61.10;;;;;;;-0.18;100.00;103455.63;5274783;28;20498;-75
2023/01/25 07:20:05;;;;;;;88.83;63.50;;;;;;;-0.59;100.00;103456.22;5270233;28;20048;-76
2023/01/25 07:22:36;;;;;;;91.57;61.30;;;;;;;-0.65;100.00;103454.31;5270168;28;20025;-75
2023/01/25 07:25:08;;;;;;;93.00;63.87;;;;;;;-0.48;100.00;103444.50;5258183;28;20147;-74
2023/01/25 07:27:39;;;;;;;96.67;61.70;;;;;;;-0.18;100.00;103456.53;5275086;28;20028;-76
2023/01/25 07:30:11;;;;;;;88.70;58.73;;;;;;;-0.15;100.00;103460.88;5276120;28;20054;-75
2023/01/25 07:32:42;;;;;;;93.07;61.77;;;;;;;-0.15;100.00;103435.09;5274971;28;20103;-76
2023/01/25 07:35:14;;;;;;;93.83;63.73;;;;;;;0.07;100.00;103440.84;5266658;28;20124;-73
2023/01/25 07:37:46;;;;;;;94.87;61.63;;;;;;;0.06;100.00;103433.94;5264954;28;20483;-74
2023/01/25 07:40:17;;;;;;;89.03;59.47;;;;;;;0.13;100.00;103448.75;5274056;28;20029;-76
2023/01/25 07:42:50;;;;;;;89.63;60.57;;;;;;;0.16;100.00;103430.78;5277373;28;20650;-75
2023/01/25 07:45:27;;;;;;;94.37;62.93;;;;;;;0.29;100.00;103441.41;5274784;28;20111;-75
2023/01/25 07:47:59;;;;;;;91.27;61.60;;;;;;;0.23;100.00;103435.25;5274827;28;20028;-74
2023/01/25 07:50:30;;;;;;;93.87;61.67;;;;;;;-0.10;100.00;103438.69;5276352;28;20033;-76
2023/01/25 07:53:01;;;;;;;92.13;61.23;;;;;;;-0.11;100.00;103436.94;5273388;28;20028;-75
2023/01/25 07:55:33;;;;;;;96.67;64.27;;;;;;;-0.03;100.00;103427.72;5274810;28;20040;-75
2023/01/25 07:58:04;;;;;;;90.43;63.80;;;;;;;0.06;100.00;103423.63;5273467;28;20029;-74
2023/01/25 08:00:36;;;;;;;86.10;61.00;;;;;;;0.18;100.00;103429.13;5275844;28;20588;-77
2023/01/25 08:03:08;;;;;;;87.40;59.73;;;;;;;0.27;100.00;103433.63;5275800;28;20099;-76
2023/01/25 08:05:43;;;;;;;88.07;58.70;;;;;;;0.24;100.00;103444.72;5275105;28;20024;-77
2023/01/25 08:08:15;;;;;;;92.93;62.10;;;;;;;0.09;100.00;103440.06;5269297;28;20028;-82
2023/01/25 08:10:46;;;;;;;90.47;62.07;;;;;;;-0.30;100.00;103423.56;5267646;28;20048;-78
2023/01/25 08:13:17;;;;;;;92.63;63.20;;;;;;;0.03;100.00;103429.59;5273345;28;20440;-73
2023/01/25 08:15:53;;;;;;;91.13;61.57;;;;;;;0.06;100.00;103415.91;5273789;28;20024;-74
2023/01/25 08:18:25;;;;;;;91.43;61.40;;;;;;;0.13;100.00;103429.81;5272649;28;20047;-74
2023/01/25 08:20:59;;;;;;;84.93;58.47;;;;;;;0.21;100.00;103429.19;5273026;28;20041;-82
2023/01/25 08:23:30;;;;;;;92.93;62.22;;;;;;;0.19;100.00;103422.25;5272569;28;20044;-74
2023/01/25 08:26:06;;;;;;;90.00;61.70;;;;;;;0.26;100.00;103426.75;5272155;28;20025;-77
2023/01/25 08:28:37;;;;;;;90.40;60.53;;;;;;;0.20;100.00;103419.72;5273608;28;20028;-82
2023/01/25 08:31:16;;;;;;;91.87;60.60;;;;;;;0.28;100.00;103417.31;5271758;28;20425;-78
2023/01/25 08:33:47;;;;;;;92.17;61.00;;;;;;;0.29;100.00;103421.66;5273080;28;20510;-77
2023/01/25 08:36:20;;;;;;;89.50;60.87;;;;;;;0.10;100.00;103399.69;5271486;28;20028;-78
2023/01/25 08:38:56;;;;;;;95.03;62.13;;;;;;;0.28;100.00;103416.47;5275217;28;20475;-77
2023/01/25 08:41:31;;;;;;;88.70;60.27;;;;;;;0.21;100.00;103407.72;5273351;28;20572;-77
2023/01/25 08:44:03;;;;;;;86.55;58.00;;;;;;;0.28;100.00;103419.91;5272899;28;20021;-75
2023/01/25 08:46:34;;;;;;;97.53;64.57;;;;;;;0.27;100.00;103428.47;5265639;28;20713;-77
2023/01/25 08:49:06;;;;;;;95.53;64.33;;;;;;;0.23;100.00;103427.53;5259531;28;20067;-75
2023/01/25 08:51:37;;;;;;;92.47;59.13;;;;;;;0.13;100.00;103410.06;5267915;28;20012;-74
2023/01/25 08:54:11;;;;;;;97.40;65.97;;;;;;;0.23;100.00;103427.53;5274603;28;20055;-74
2023/01/25 08:56:42;;;;;;;94.63;62.20;;;;;;;0.24;100.00;103421.53;5274826;28;20387;-75
2023/01/25 08:59:13;;;;;;;100.00;61.30;;;;;;;0.21;100.00;103424.03;5272030;28;20032;-74
2023/01/25 09:01:45;;;;;;;95.80;61.90;;;;;;;0.21;100.00;103411.16;5271549;28;20012;-77
2023/01/25 09:04:16;;;;;;;88.47;59.57;;;;;;;0.24;100.00;103410.38;5263106;28;20050;-76
2023/01/25 09:06:47;;;;;;;95.43;60.40;;;;;;;0.26;100.00;103407.81;5263174;28;20029;-78
2023/01/25 09:09:21;;;;;;;96.40;61.90;;;;;;;0.23;100.00;103399.16;5268772;28;20036;-75
2023/01/25 09:11:52;;;;;;;93.03;61.63;;;;;;;0.19;100.00;103399.91;5265183;28;20032;-77
2023/01/25 09:14:23;;;;;;;91.90;59.17;;;;;;;0.21;100.00;103400.84;5259016;28;20025;-76
2023/01/25 09:16:55;;;;;;;91.57;59.33;;;;;;;0.03;100.00;103378.06;5273580;28;20027;-74
2023/01/25 09:19:26;;;;;;;92.90;59.37;;;;;;;0.17;100.00;103403.31;5272548;28;20074;-73
2023/01/25 09:21:57;;;;;;;94.37;59.20;;;;;;;0.15;100.00;103394.66;5274250;28;20029;-80
2023/01/25 09:24:28;;;;;;;91.30;61.00;;;;;;;0.08;100.00;103394.50;5279335;28;20776;-78
2023/01/25 09:27:00;;;;;;;98.20;63.63;;;;;;;0.12;100.00;103392.88;5273771;28;20074;-84
2023/01/25 09:29:31;;;;;;;93.73;62.13;;;;;;;0.10;100.00;103389.38;5272262;28;20090;-78
2023/01/25 09:32:03;;;;;;;92.23;63.07;;;;;;;0.12;100.00;103390.31;5273306;28;20016;-76
2023/01/25 09:34:35;;;;;;;92.77;60.87;;;;;;;0.08;100.00;103389.34;5273327;28;20048;-80
2023/01/25 09:37:06;;;;;;;92.10;60.33;;;;;;;0.15;100.00;103394.66;5273340;28;20040;-73
2023/01/25 09:39:37;;;;;;;99.77;63.93;;;;;;;0.20;100.00;103388.78;5272837;28;20020;-78
2023/01/25 09:42:41;;;;;;;93.00;61.27;;;;;;;0.25;100.00;103399.22;5260052;28;20040;-77
2023/01/25 09:45:30;;;;;;;99.13;64.23;;;;;;;0.22;100.00;103383.66;5266920;28;20032;-75
2023/01/25 09:48:07;;;;;;;100.27;64.20;;;;;;;-0.14;100.00;103393.06;5263671;28;20032;-77
2023/01/25 09:50:48;;;;;;;96.10;62.73;;;;;;;-0.30;100.00;103397.81;5254925;28;20051;-76
2023/01/25 09:53:33;;;;;;;99.80;64.93;;;;;;;-0.03;100.00;103393.34;5253014;28;20029;-80
2023/01/25 09:56:11;;;;;;;98.83;62.53;;;;;;;0.02;100.00;103391.75;5267696;28;20035;-78
2023/01/25 09:58:47;;;;;;;100.53;63.50;;;;;;;0.04;100.00;103378.91;5277893;28;20070;-75
2023/01/25 10:01:40;;;;;;;94.90;61.90;;;;;;;0.13;100.00;103392.03;5259454;28;20063;-73
2023/01/25 10:04:29;;;;;;;98.30;64.53;;;;;;;0.22;100.00;103389.72;5272391;28;20020;-75
2023/01/25 10:07:17;;;;;;;100.87;65.73;;;;;;;0.09;100.00;103374.75;5272742;28;20042;-72
2023/01/25 10:09:59;;;;;;;100.83;64.13;;;;;;;0.22;100.00;103393.97;5272354;28;20746;-76
2023/01/25 10:12:36;;;;;;;98.63;63.73;;;;;;;0.20;100.00;103380.16;5271885;28;20024;-75
2023/01/25 10:15:18;;;;;;;103.50;65.83;;;;;;;0.22;100.00;103379.41;5273114;28;20070;-72
2023/01/25 10:18:11;;;;;;;101.23;64.43;;;;;;;0.13;100.00;103380.84;5255506;28;20487;-79
2023/01/25 10:20:49;;;;;;;102.93;64.43;;;;;;;0.02;100.00;103371.13;5259718;28;20111;-75
2023/01/25 10:23:27;;;;;;;102.57;66.10;;;;;;;0.13;100.00;103368.84;5271969;28;20028;-76
2023/01/25 10:26:02;;;;;;;104.03;64.80;;;;;;;0.18;100.00;103372.41;5271815;28;20024;-77
2023/01/25 10:28:45;;;;;;;104.03;68.30;;;;;;;0.14;100.00;103364.56;5272274;28;20123;-75
2023/01/25 10:31:19;;;;;;;110.47;67.27;;;;;;;0.07;100.00;103350.66;5273167;28;20024;-79
2023/01/25 10:33:51;;;;;;;103.47;65.60;;;;;;;0.17;100.00;103357.78;5277478;28;20027;-77
2023/01/25 10:36:29;;;;;;;109.37;67.93;;;;;;;0.23;100.00;103355.34;5276481;28;20024;-79
2023/01/25 10:39:02;;;;;;;105.43;68.37;;;;;;;-0.03;100.00;103353.00;5277262;28;20060;-75
2023/01/25 10:41:40;;;;;;;108.97;67.57;;;;;;;0.23;100.00;103345.03;5263564;28;20096;-79
2023/01/25 10:44:21;;;;;;;107.47;66.53;;;;;;;0.09;100.00;103336.09;5274864;28;20570;-84
2023/01/25 10:47:06;;;;;;;102.60;64.87;;;;;;;0.07;100.00;103328.31;5275673;28;20032;-80
2023/01/25 10:49:42;;;;;;;;;;;;;;;0.20;100.00;103324.34;5270147;28;20025;-80
2023/01/25 10:52:18;;;;;;;100.40;61.60;;;;;;;0.15;100.00;103313.06;5279895;28;19913;-78
2023/01/25 10:55:15;;;;;;;99.60;62.83;;;;;;;0.23;100.00;103305.50;5277158;28;20593;-78
2023/01/25 10:57:53;;;;;;;104.07;66.43;;;;;;;0.20;100.00;103297.69;5273822;28;20445;-76
2023/01/25 11:00:31;;;;;;;108.23;64.17;;;;;;;0.19;100.00;103296.81;5275788;28;20021;-79
2023/01/25 11:03:03;;;;;;;102.20;64.00;;;;;;;0.17;100.00;103292.47;5275473;28;20025;-72
2023/01/25 11:05:39;;;;;;;104.83;63.93;;;;;;;0.21;100.00;103291.72;5276169;28;20417;-70
2023/01/25 11:08:41;;;;;;;98.13;62.80;;;;;;;0.26;100.00;103291.81;5265125;28;20024;-80
2023/01/25 11:11:30;;;;;;;107.40;66.03;;;;;;;0.19;100.00;103276.19;5272689;28;20542;-79
2023/01/25 11:14:15;;;;;;;96.27;61.70;;;;;;;0.22;100.00;103270.25;5275189;28;20039;-78
2023/01/25 11:16:47;;;;;;;111.47;68.87;;;;;;;0.16;100.00;103260.66;5276757;28;20111;-79
2023/01/25 11:19:37;;;;;;;94.80;59.73;;;;;;;0.23;100.00;103262.56;5274488;28;20025;-74
2023/01/25 11:22:17;;;;;;;105.00;64.10;;;;;;;0.24;100.00;103261.72;5275738;28;20028;-78
2023/01/25 11:24:48;;;;;;;101.13;63.17;;;;;;;0.21;100.00;103256.47;5276153;28;20103;-79
2023/01/25 11:27:25;;;;;;;104.17;65.00;;;;;;;0.08;100.00;103257.03;5274420;28;20401;-77
2023/01/25 11:30:14;;;;;;;99.60;64.20;;;;;;;-0.16;100.00;103247.91;5276405;28;20039;-79
2023/01/25 11:32:46;;;;;;;103.20;66.27;;;;;;;0.01;100.00;103229.38;5274451;28;20025;-75
2023/01/25 11:35:28;;;;;;;99.07;64.83;;;;;;;0.07;100.00;103224.41;5275692;28;20020;-80
2023/01/25 11:38:12;;;;;;;102.23;63.67;;;;;;;0.13;100.00;103226.22;5276296;28;20573;-79
2023/01/25 11:40:50;;;;;;;98.95;61.47;;;;;;;0.08;100.00;103213.22;5269463;28;20105;-72